createdAt,value
2022-08-30T00:00:16.104Z,100589.84
2022-08-30T00:02:44.577Z,100605.19
2022-08-30T00:05:16.919Z,100574.94
2022-08-30T00:07:45.897Z,100554.50
2022-08-30T00:10:13.794Z,100633.00
2022-08-30T00:12:43.867Z,100576.81
2022-08-30T00:15:14.121Z,100627.50
2022-08-30T00:17:43.683Z,100558.69
2022-08-30T00:20:14.359Z,100624.25
2022-08-30T00:22:42.617Z,100624.25
2022-08-30T00:25:10.630Z,100578.06
2022-08-30T00:27:38.997Z,100593.50
2022-08-30T00:30:10.520Z,100588.31
2022-08-30T00:32:38.184Z,100610.00
2022-08-30T00:35:07.587Z,100554.28
2022-08-30T00:37:35.687Z,100541.66
2022-08-30T00:40:05.829Z,100576.28
2022-08-30T00:42:33.722Z,100598.50
2022-08-30T00:45:10.106Z,100547.56
2022-08-30T00:47:37.624Z,100596.09
2022-08-30T00:50:08.665Z,100592.53
2022-08-30T00:52:41.349Z,100577.38
2022-08-30T00:55:09.857Z,100550.34
2022-08-30T00:57:37.621Z,100585.84
2022-08-30T01:00:07.187Z,100481.84
2022-08-30T01:02:35.306Z,100548.00
2022-08-30T01:05:05.659Z,100549.72
2022-08-30T01:07:35.320Z,100590.19
2022-08-30T01:10:05.384Z,100590.19
2022-08-30T01:12:34.457Z,100541.25
2022-08-30T01:15:02.740Z,100529.19
2022-08-30T01:17:30.806Z,100564.72
2022-08-30T01:20:07.242Z,100579.94
2022-08-30T01:22:43.992Z,100582.34
2022-08-30T01:25:22.231Z,100508.31
2022-08-30T01:27:54.237Z,100514.94
2022-08-30T01:30:24.574Z,100490.41
2022-08-30T01:33:01.389Z,100479.44
2022-08-30T01:35:35.897Z,100521.88
2022-08-30T01:38:03.775Z,100534.16
2022-08-30T01:40:31.421Z,100498.50
2022-08-30T01:43:00.599Z,100564.78
2022-08-30T01:45:28.247Z,100592.78
2022-08-30T01:47:56.193Z,100566.56
2022-08-30T01:50:27.656Z,100596.28
2022-08-30T01:52:56.719Z,100512.56
2022-08-30T01:55:25.031Z,100549.56
2022-08-30T01:57:52.767Z,100588.22
2022-08-30T02:00:21.956Z,100531.56
2022-08-30T02:02:49.709Z,100541.56
2022-08-30T02:05:17.651Z,100586.63
2022-08-30T02:07:45.406Z,100520.34
2022-08-30T02:10:15.074Z,100514.38
2022-08-30T02:12:43.169Z,100583.44
2022-08-30T02:15:11.178Z,100586.53
2022-08-30T02:17:39.679Z,100561.09
2022-08-30T02:20:08.221Z,100595.97
2022-08-30T02:22:35.871Z,100568.09
2022-08-30T02:25:06.578Z,100582.53
2022-08-30T02:27:39.476Z,100580.56
2022-08-30T02:30:11.123Z,100572.63
2022-08-30T02:32:38.929Z,100558.06
2022-08-30T02:35:06.847Z,100507.50
2022-08-30T02:37:34.672Z,100420.47
2022-08-30T02:40:02.563Z,100553.81
2022-08-30T02:42:30.366Z,100569.88
2022-08-30T02:44:58.224Z,100522.41
2022-08-30T02:47:26.861Z,100574.22
2022-08-30T02:49:54.696Z,100506.81
2022-08-30T02:52:27.648Z,100564.34
2022-08-30T02:54:57.835Z,100569.06
2022-08-30T02:57:26.012Z,100552.88
2022-08-30T02:59:53.748Z,100518.47
2022-08-30T03:02:22.633Z,100565.06
2022-08-30T03:04:50.598Z,100531.31
2022-08-30T03:07:19.966Z,100561.13
2022-08-30T03:09:47.840Z,100561.03
2022-08-30T03:12:16.838Z,100555.59
2022-08-30T03:14:44.738Z,100465.38
2022-08-30T03:17:13.804Z,100554.00
2022-08-30T03:19:47.583Z,100504.56
2022-08-30T03:22:15.871Z,100547.81
2022-08-30T03:24:45.425Z,100554.44
2022-08-30T03:27:14.939Z,100557.22
2022-08-30T03:29:42.955Z,100559.19
2022-08-30T03:32:15.710Z,100540.22
2022-08-30T03:34:44.619Z,100526.22
2022-08-30T03:37:12.286Z,100517.06
2022-08-30T03:39:40.624Z,100544.88
2022-08-30T03:42:08.747Z,100494.78
2022-08-30T03:44:36.814Z,100459.84
2022-08-30T03:47:07.461Z,100544.09
2022-08-30T03:49:35.534Z,100540.19
2022-08-30T03:52:04.501Z,100528.03
2022-08-30T03:54:32.345Z,100560.34
2022-08-30T03:57:01.066Z,100558.38
2022-08-30T03:59:28.780Z,100499.50
2022-08-30T04:01:56.585Z,100545.72
2022-08-30T04:04:24.501Z,100537.94
2022-08-30T04:06:52.228Z,100462.84
2022-08-30T04:09:20.217Z,100521.88
2022-08-30T04:11:48.051Z,100552.03
2022-08-30T04:14:15.791Z,100551.25
2022-08-30T04:16:43.759Z,100543.66
2022-08-30T04:19:11.930Z,100507.63
2022-08-30T04:21:43.127Z,100544.09
2022-08-30T04:24:12.461Z,100552.38
2022-08-30T04:26:40.100Z,100449.84
2022-08-30T04:29:08.188Z,100534.81
2022-08-30T04:31:35.900Z,100513.22
2022-08-30T04:34:03.856Z,100469.00
2022-08-30T04:36:31.573Z,100524.03
2022-08-30T04:38:59.384Z,100498.34
2022-08-30T04:41:27.231Z,100525.25
2022-08-30T04:43:54.932Z,100435.50
2022-08-30T04:46:22.777Z,100542.03
2022-08-30T04:48:50.453Z,100528.38
2022-08-30T04:51:18.541Z,100487.91
2022-08-30T04:53:46.699Z,100526.09
2022-08-30T04:56:17.410Z,100535.72
2022-08-30T04:58:46.551Z,100545.16
2022-08-30T05:01:20.604Z,100538.03
2022-08-30T05:03:52.979Z,100502.59
2022-08-30T05:06:21.363Z,100523.47
2022-08-30T05:08:51.738Z,100510.56
2022-08-30T05:11:20.275Z,100539.06
2022-08-30T05:13:49.841Z,100480.97
2022-08-30T05:16:19.539Z,100548.53
2022-08-30T05:18:49.139Z,100554.78
2022-08-30T05:21:28.259Z,100555.94
2022-08-30T05:23:58.440Z,100469.22
2022-08-30T05:26:29.658Z,100564.53
2022-08-30T05:28:57.858Z,100538.50
2022-08-30T05:31:32.415Z,100551.09
2022-08-30T05:34:01.506Z,100493.66
2022-08-30T05:36:31.856Z,100557.69
2022-08-30T05:39:00.668Z,100556.91
2022-08-30T05:41:29.132Z,100540.19
2022-08-30T05:43:59.036Z,100482.81
2022-08-30T05:49:07.539Z,100572.31
2022-08-30T05:51:43.132Z,100556.94
2022-08-30T05:54:13.170Z,100583.25
2022-08-30T05:56:42.741Z,100569.53
2022-08-30T05:59:10.408Z,100570.19
2022-08-30T06:01:44.504Z,100588.03
2022-08-30T06:04:13.605Z,100570.72
2022-08-30T06:06:43.213Z,100568.41
2022-08-30T06:09:13.133Z,100578.41
2022-08-30T06:11:40.957Z,100578.00
2022-08-30T06:14:09.059Z,100541.00
2022-08-30T06:16:39.141Z,100577.41
2022-08-30T06:19:09.685Z,100588.09
2022-08-30T06:21:39.498Z,100591.66
2022-08-30T06:24:09.120Z,100554.31
2022-08-30T06:26:47.424Z,100588.88
2022-08-30T06:29:19.060Z,100512.91
2022-08-30T06:31:47.634Z,100592.00
2022-08-30T06:34:16.615Z,100618.00
2022-08-30T06:36:44.647Z,100569.72
2022-08-30T06:39:12.316Z,100568.13
2022-08-30T06:41:41.479Z,100589.00
2022-08-30T06:44:28.225Z,100594.97
2022-08-30T06:46:58.461Z,100602.91
2022-08-30T06:49:26.330Z,100596.56
2022-08-30T06:51:54.217Z,100605.31
2022-08-30T06:54:21.920Z,100472.44
2022-08-30T06:56:58.035Z,100604.50
2022-08-30T06:59:27.392Z,100540.47
2022-08-30T07:01:56.061Z,100594.31
2022-08-30T07:04:24.618Z,100602.13
2022-08-30T07:06:53.609Z,100606.47
2022-08-30T07:09:23.135Z,100607.72
2022-08-30T07:11:51.874Z,100612.91
2022-08-30T07:14:20.623Z,100609.78
2022-08-30T07:16:51.257Z,100582.34
2022-08-30T07:19:21.438Z,100588.88
2022-08-30T07:21:50.441Z,100609.50
2022-08-30T07:24:18.430Z,100579.44
2022-08-30T07:26:51.979Z,100582.69
2022-08-30T07:29:21.400Z,100611.38
2022-08-30T07:31:49.506Z,100560.53
2022-08-30T07:34:19.816Z,100567.06
2022-08-30T07:36:49.382Z,100554.09
2022-08-30T07:39:17.206Z,100555.47
2022-08-30T07:41:44.952Z,100630.41
2022-08-30T07:44:12.722Z,100596.41
2022-08-30T07:46:41.984Z,100634.16
2022-08-30T07:49:11.586Z,100535.47
2022-08-30T07:51:40.634Z,100642.75
2022-08-30T07:54:08.826Z,100440.38
2022-08-30T07:56:36.518Z,100654.38
2022-08-30T07:59:04.619Z,100643.75
2022-08-30T08:01:32.490Z,100523.16
2022-08-30T08:04:00.491Z,100600.56
2022-08-30T08:06:34.687Z,100651.81
2022-08-30T08:09:03.022Z,100577.88
2022-08-30T08:11:33.838Z,100600.38
2022-08-30T08:14:03.680Z,100646.72
2022-08-30T08:16:34.427Z,100651.56
2022-08-30T08:19:02.244Z,100649.22
2022-08-30T08:21:29.945Z,100643.69
2022-08-30T08:23:57.771Z,100629.69
2022-08-30T08:26:25.440Z,100579.25
2022-08-30T08:28:53.277Z,100555.44
2022-08-30T08:31:31.445Z,100611.31
2022-08-30T08:34:05.865Z,100639.97
2022-08-30T08:36:36.021Z,100651.47
2022-08-30T08:39:06.017Z,100627.47
2022-08-30T08:42:11.251Z,100544.56
2022-08-30T08:44:39.718Z,100659.03
2022-08-30T08:47:14.373Z,100648.44
2022-08-30T08:49:46.600Z,100614.28
2022-08-30T08:52:40.989Z,100647.81
2022-08-30T08:55:16.393Z,100570.19
2022-08-30T08:57:44.367Z,100540.22
2022-08-30T09:00:13.696Z,100627.50
2022-08-30T09:02:59.644Z,100628.28
2022-08-30T09:05:36.765Z,100646.66
2022-08-30T09:08:15.006Z,100629.88
2022-08-30T09:10:55.489Z,100614.28
2022-08-30T09:13:24.925Z,100651.69
2022-08-30T09:15:56.253Z,100604.28
2022-08-30T09:18:51.243Z,100651.75
2022-08-30T09:21:27.446Z,100646.69
2022-08-30T09:24:01.186Z,100530.41
2022-08-30T09:26:32.640Z,100672.81
2022-08-30T09:29:01.159Z,100641.34
2022-08-30T09:31:45.302Z,100657.47
2022-08-30T09:34:18.541Z,100537.13
2022-08-30T09:36:52.113Z,100601.94
2022-08-30T09:39:41.566Z,100591.72
2022-08-30T09:42:23.924Z,100644.53
2022-08-30T09:44:53.028Z,100637.22
2022-08-30T09:47:27.758Z,100631.25
2022-08-30T09:50:10.153Z,100644.59
2022-08-30T09:53:10.719Z,100641.47
2022-08-30T09:56:02.066Z,100634.00
2022-08-30T09:58:54.839Z,100632.84
2022-08-30T10:01:30.067Z,100633.66
2022-08-30T10:04:01.154Z,100631.31
2022-08-30T10:06:37.071Z,100640.06
2022-08-30T10:09:14.050Z,100624.25
2022-08-30T10:11:49.405Z,100622.75
2022-08-30T10:14:20.158Z,100607.75
2022-08-30T10:17:20.639Z,100586.44
2022-08-30T10:20:10.758Z,100594.63
2022-08-30T10:22:44.123Z,100602.06
2022-08-30T10:25:21.883Z,100587.28
2022-08-30T10:27:56.432Z,100562.41
2022-08-30T10:30:29.064Z,100570.63
2022-08-30T10:33:12.553Z,100587.69
2022-08-30T10:35:47.181Z,100589.13
2022-08-30T10:38:32.925Z,100594.56
2022-08-30T10:41:24.867Z,100586.53
2022-08-30T10:44:07.765Z,100564.22
2022-08-30T10:47:01.579Z,100582.09
2022-08-30T10:49:35.360Z,100580.59
2022-08-30T10:52:19.847Z,100580.28
2022-08-30T10:54:59.695Z,100583.94
2022-08-30T10:57:28.543Z,100563.25
2022-08-30T11:00:11.251Z,100538.19
2022-08-30T11:02:58.223Z,100569.50
2022-08-30T11:05:32.458Z,100567.63
2022-08-30T11:08:22.051Z,100521.94
2022-08-30T11:11:26.183Z,100444.63
2022-08-30T11:13:57.265Z,100523.53
2022-08-30T11:16:40.004Z,100576.78
2022-08-30T11:19:26.528Z,100577.16
2022-08-30T11:22:25.067Z,100573.59
2022-08-30T11:25:14.854Z,100575.56
2022-08-30T11:27:53.149Z,100579.94
2022-08-30T11:30:30.798Z,100576.78
2022-08-30T11:33:10.155Z,100529.16
2022-08-30T11:35:50.751Z,100579.19
2022-08-30T11:38:27.742Z,100572.50
2022-08-30T11:40:55.405Z,100570.06
2022-08-30T11:43:40.253Z,100566.13
2022-08-30T11:46:27.870Z,100510.94
2022-08-30T11:48:58.620Z,100565.69
2022-08-30T11:51:29.307Z,100568.91
2022-08-30T11:54:26.939Z,100574.09
2022-08-30T11:57:40.999Z,100571.66
2022-08-30T12:00:25.226Z,100491.09
2022-08-30T12:03:28.876Z,100492.88
2022-08-30T12:06:00.681Z,100556.53
2022-08-30T12:08:28.494Z,100560.09
2022-08-30T12:11:01.181Z,100502.03
2022-08-30T12:13:39.372Z,100546.31
2022-08-30T12:16:20.235Z,100549.97
2022-08-30T12:19:10.227Z,100521.56
2022-08-30T12:21:44.964Z,100524.75
2022-08-30T12:24:17.047Z,100553.34
2022-08-30T12:26:47.703Z,100560.72
2022-08-30T12:29:24.463Z,100550.03
2022-08-30T12:31:58.590Z,100541.66
2022-08-30T12:34:29.056Z,100555.94
2022-08-30T12:37:15.620Z,100538.13
2022-08-30T12:39:53.698Z,100534.63
2022-08-30T12:42:31.266Z,100541.78
2022-08-30T12:45:05.700Z,100532.34
2022-08-30T12:47:48.747Z,100526.84
2022-08-30T12:50:22.094Z,100528.91
2022-08-30T12:53:13.940Z,100520.22
2022-08-30T12:56:02.093Z,100526.56
2022-08-30T12:58:43.629Z,100511.09
2022-08-30T13:01:33.826Z,100509.50
2022-08-30T13:04:22.968Z,100462.91
2022-08-30T13:07:00.383Z,100501.50
2022-08-30T13:09:32.509Z,100502.41
2022-08-30T13:12:08.299Z,100501.19
2022-08-30T13:14:43.790Z,100519.47
2022-08-30T13:17:22.397Z,100509.56
2022-08-30T13:20:26.233Z,100497.72
2022-08-30T13:23:08.919Z,100500.50
2022-08-30T13:25:39.177Z,100500.16
2022-08-30T13:28:09.470Z,100440.94
2022-08-30T13:30:39.071Z,100487.91
2022-08-30T13:33:06.872Z,100475.22
2022-08-30T13:35:34.787Z,100408.69
2022-08-30T13:38:02.767Z,100442.75
2022-08-30T13:40:32.909Z,100466.03
2022-08-30T13:43:02.039Z,100452.97
2022-08-30T13:45:44.942Z,100476.13
2022-08-30T13:48:15.456Z,100469.41
2022-08-30T13:50:46.584Z,100451.41
2022-08-30T13:53:51.570Z,100451.78
2022-08-30T13:56:06.154Z,100434.75
2022-08-30T13:58:36.284Z,100372.03
2022-08-30T14:01:04.023Z,100444.81
2022-08-30T14:03:33.850Z,100432.59
2022-08-30T14:06:29.538Z,100399.38
2022-08-30T14:08:53.486Z,100439.72
2022-08-30T14:11:23.756Z,100430.63
2022-08-30T14:16:44.157Z,100420.25
2022-08-30T14:19:14.187Z,100421.06
2022-08-30T14:21:43.143Z,100399.69
2022-08-30T14:24:14.381Z,100411.56
2022-08-30T14:26:51.568Z,100417.94
2022-08-30T14:29:22.838Z,100361.66
2022-08-30T14:31:52.686Z,100330.16
2022-08-30T14:34:21.703Z,100392.66
2022-08-30T14:36:49.681Z,100321.44
2022-08-30T14:39:20.064Z,100372.31
2022-08-30T14:41:50.777Z,100359.53
2022-08-30T14:44:20.207Z,100379.50
2022-08-30T14:46:49.197Z,100331.94
2022-08-30T14:49:20.116Z,100289.75
2022-08-30T14:51:48.661Z,100350.88
2022-08-30T14:54:23.466Z,100326.16
2022-08-30T14:56:54.325Z,100343.44
2022-08-30T14:59:24.132Z,100358.34
2022-08-30T15:01:51.935Z,100275.66
2022-08-30T15:04:21.668Z,100348.47
2022-08-30T15:06:51.209Z,100313.25
2022-08-30T15:09:23.768Z,100348.94
2022-08-30T15:11:55.140Z,100335.44
2022-08-30T15:14:26.376Z,100295.91
2022-08-30T15:16:58.277Z,100317.84
2022-08-30T15:19:26.846Z,100356.53
2022-08-30T15:21:55.236Z,100349.34
2022-08-30T15:24:29.379Z,100289.72
2022-08-30T15:26:59.948Z,100352.09
2022-08-30T15:29:31.482Z,100263.78
2022-08-30T15:32:01.962Z,100311.25
2022-08-30T15:34:31.008Z,100359.56
2022-08-30T15:36:59.500Z,100350.44
2022-08-30T15:39:27.479Z,100339.69
2022-08-30T15:42:01.105Z,100295.69
2022-08-30T15:44:34.400Z,100348.38
2022-08-30T15:47:03.026Z,100338.09
2022-08-30T15:49:30.826Z,100310.19
2022-08-30T15:52:03.913Z,100330.19
2022-08-30T15:54:31.704Z,100255.91
2022-08-30T15:57:00.088Z,100271.16
2022-08-30T15:59:30.189Z,100312.69
2022-08-30T16:01:58.519Z,100326.63
2022-08-30T16:04:29.274Z,100265.84
2022-08-30T16:06:57.407Z,100293.88
2022-08-30T16:09:29.848Z,100315.75
2022-08-30T16:12:01.190Z,100306.09
2022-08-30T16:14:29.194Z,100319.78
2022-08-30T16:16:58.281Z,100275.75
2022-08-30T16:19:26.677Z,100315.31
2022-08-30T16:21:54.558Z,100296.97
2022-08-30T16:24:23.585Z,100269.75
2022-08-30T16:26:51.650Z,100277.66
2022-08-30T16:29:20.174Z,100307.91
2022-08-30T16:31:48.562Z,100262.31
2022-08-30T16:34:18.551Z,100257.06
2022-08-30T16:36:46.914Z,100223.91
2022-08-30T16:39:15.273Z,100308.25
2022-08-30T16:41:44.806Z,100235.47
2022-08-30T16:44:16.010Z,100309.81
2022-08-30T16:46:53.053Z,100308.59
2022-08-30T16:49:23.036Z,100302.97
2022-08-30T16:51:51.643Z,100296.53
2022-08-30T16:54:21.271Z,100189.47
2022-08-30T16:56:49.135Z,100260.09
2022-08-30T16:59:17.845Z,100296.41
2022-08-30T17:01:46.731Z,100292.47
2022-08-30T17:04:18.488Z,100273.19
2022-08-30T17:06:50.060Z,100225.75
2022-08-30T17:09:19.362Z,100297.53
2022-08-30T17:11:48.429Z,100295.56
2022-08-30T17:14:22.986Z,100206.06
2022-08-30T17:16:58.379Z,100279.06
2022-08-30T17:22:16.018Z,100227.75
2022-08-30T17:24:43.801Z,100191.34
2022-08-30T17:27:11.626Z,100290.81
2022-08-30T17:29:39.351Z,100274.06
2022-08-30T17:32:07.387Z,100272.47
2022-08-30T17:34:37.168Z,100250.88
2022-08-30T17:37:05.102Z,100271.59
2022-08-30T17:39:32.935Z,100207.69
2022-08-30T17:42:00.832Z,100271.59
2022-08-30T17:44:31.254Z,100237.19
2022-08-30T17:47:00.020Z,100262.63
2022-08-30T17:49:29.031Z,100293.44
2022-08-30T17:51:57.891Z,100262.63
2022-08-30T17:54:30.355Z,100267.00
2022-08-30T17:56:59.232Z,100296.94
2022-08-30T17:59:29.297Z,100295.72
2022-08-30T18:02:00.238Z,100164.00
2022-08-30T18:04:28.935Z,100291.63
2022-08-30T18:06:56.796Z,100292.78
2022-08-30T18:09:25.355Z,100309.41
2022-08-30T18:11:56.485Z,100312.28
2022-08-30T18:14:24.764Z,100280.69
2022-08-30T18:16:54.430Z,100306.94
2022-08-30T18:19:24.453Z,100246.22
2022-08-30T18:21:53.687Z,100320.91
2022-08-30T18:24:22.540Z,100321.31
2022-08-30T18:26:50.838Z,100286.59
2022-08-30T18:29:29.539Z,100290.88
2022-08-30T18:32:01.393Z,100326.44
2022-08-30T18:34:29.486Z,100283.41
2022-08-30T18:36:57.343Z,100313.53
2022-08-30T18:39:25.522Z,100337.09
2022-08-30T18:41:58.436Z,100301.78
2022-08-30T18:44:28.813Z,100208.25
2022-08-30T18:46:58.303Z,100227.25
2022-08-30T18:49:32.147Z,100331.19
2022-08-30T18:52:02.391Z,100331.19
2022-08-30T18:54:30.444Z,100209.22
2022-08-30T18:56:58.496Z,100276.84
2022-08-30T18:59:35.307Z,100325.25
2022-08-30T19:02:08.143Z,100356.25
2022-08-30T19:04:37.783Z,100291.47
2022-08-30T19:07:08.071Z,100356.13
2022-08-30T19:09:37.658Z,100375.97
2022-08-30T19:12:09.561Z,100312.69
2022-08-30T19:14:40.232Z,100381.25
2022-08-30T19:17:08.277Z,100358.44
2022-08-30T19:19:47.437Z,100404.38
2022-08-30T19:22:21.616Z,100412.69
2022-08-30T19:24:51.011Z,100397.06
2022-08-30T19:27:38.057Z,100420.56
2022-08-30T19:30:11.265Z,100424.50
2022-08-30T19:32:38.932Z,100432.03
2022-08-30T19:35:07.705Z,100406.28
2022-08-30T19:37:36.953Z,100440.69
2022-08-30T19:40:08.736Z,100370.22
2022-08-30T19:42:43.376Z,100445.41
2022-08-30T19:48:05.943Z,100358.47
2022-08-30T19:50:33.804Z,100453.34
2022-08-30T19:53:01.732Z,100487.31
2022-08-30T19:55:31.409Z,100465.56
2022-08-30T19:57:59.490Z,100464.59
2022-08-30T20:00:27.566Z,100515.75
2022-08-30T20:03:01.802Z,100499.00
2022-08-30T20:05:31.383Z,100513.41
2022-08-30T20:08:00.161Z,100498.41
2022-08-30T20:10:28.071Z,100508.47
2022-08-30T20:12:55.892Z,100410.81
2022-08-30T20:15:25.020Z,100363.53
2022-08-30T20:18:05.257Z,100391.16
2022-08-30T20:20:36.962Z,100525.28
2022-08-30T20:23:05.987Z,100467.50
2022-08-30T20:24:23.646Z,100283.03
2022-08-30T20:25:35.145Z,100539.50
2022-08-30T20:28:03.499Z,100499.25
2022-08-30T20:30:52.333Z,100471.00
2022-08-30T20:33:21.710Z,100549.41
2022-08-30T20:35:51.474Z,100566.81
2022-08-30T20:38:24.255Z,100557.69
2022-08-30T20:40:56.647Z,100554.88
2022-08-30T20:43:27.560Z,100518.34
2022-08-30T20:45:56.257Z,100517.84
2022-08-30T20:48:27.206Z,100563.31
2022-08-30T20:50:55.056Z,100552.59
2022-08-30T20:53:22.709Z,100557.34
2022-08-30T20:55:50.505Z,100542.72
2022-08-30T20:58:18.478Z,100531.50
2022-08-30T21:00:53.628Z,100542.22
2022-08-30T21:03:27.232Z,100494.09
2022-08-30T21:05:56.789Z,100554.03
2022-08-30T21:08:25.545Z,100525.53
2022-08-30T21:10:53.995Z,100562.94
2022-08-30T21:13:22.111Z,100561.44
2022-08-30T21:15:55.547Z,100566.59
2022-08-30T21:18:31.221Z,100566.22
2022-08-30T21:21:00.321Z,100571.41
2022-08-30T21:23:27.991Z,100541.16
2022-08-30T21:25:56.867Z,100510.69
2022-08-30T21:28:24.596Z,100514.47
2022-08-30T21:31:07.170Z,100557.19
2022-08-30T21:33:35.526Z,100504.22
2022-08-30T21:36:22.563Z,100451.81
2022-08-30T21:38:52.877Z,100556.03
2022-08-30T21:41:22.124Z,100544.31
2022-08-30T21:43:59.549Z,100563.19
2022-08-30T21:46:29.597Z,100510.31
2022-08-30T21:49:01.415Z,100550.78
2022-08-30T21:51:34.283Z,100527.16
2022-08-30T21:54:02.678Z,100537.34
2022-08-30T21:56:30.779Z,100515.56
2022-08-30T21:58:58.619Z,100585.25
2022-08-30T22:01:28.850Z,100569.22
2022-08-30T22:03:59.222Z,100585.59
2022-08-30T22:06:30.598Z,100507.41
2022-08-30T22:09:01.360Z,100558.59
2022-08-30T22:11:31.518Z,100585.72
2022-08-30T22:13:59.461Z,100584.09
2022-08-30T22:16:29.437Z,100602.97
2022-08-30T22:18:57.441Z,100587.69
2022-08-30T22:21:27.741Z,100552.19
2022-08-30T22:23:56.558Z,100589.03
2022-08-30T22:26:25.369Z,100562.63
2022-08-30T22:28:54.601Z,100582.31
2022-08-30T22:31:23.978Z,100524.94
2022-08-30T22:33:52.951Z,100513.09
2022-08-30T22:36:24.380Z,100564.84
2022-08-30T22:39:01.882Z,100573.16
2022-08-30T22:41:34.146Z,100544.28
2022-08-30T22:44:02.664Z,100570.75
2022-08-30T22:46:34.218Z,100538.84
2022-08-30T22:49:08.384Z,100554.94
2022-08-30T22:51:37.341Z,100564.03
2022-08-30T22:54:07.131Z,100538.06
2022-08-30T22:56:36.139Z,100511.63
2022-08-30T22:59:04.938Z,100527.94
2022-08-30T23:01:37.065Z,100505.94
2022-08-30T23:04:07.520Z,100464.91
2022-08-30T23:06:35.838Z,100506.59
2022-08-30T23:09:05.118Z,100498.66
2022-08-30T23:11:33.410Z,100455.56
2022-08-30T23:14:03.254Z,100470.69
2022-08-30T23:16:32.842Z,100487.53
2022-08-30T23:19:00.731Z,100489.50
2022-08-30T23:21:30.423Z,100486.75
2022-08-30T23:24:17.523Z,100472.44
2022-08-30T23:27:04.871Z,100466.56
2022-08-30T23:29:52.523Z,100477.72
2022-08-30T23:32:40.161Z,100422.16
2022-08-30T23:35:30.567Z,100473.91
2022-08-30T23:38:18.789Z,100439.75
2022-08-30T23:41:05.232Z,100458.41
2022-08-30T23:43:51.628Z,100488.84
2022-08-30T23:46:40.987Z,100471.00
2022-08-30T23:49:27.971Z,100456.28
2022-08-30T23:52:14.133Z,100443.63
2022-08-30T23:55:00.426Z,100423.69
2022-08-30T23:57:46.555Z,100326.84
